Time;durP1;ratioP1;P1;durP2;ratioP2;P2;SDS_P1;SDS_P2;PMS_P1;PMS_P2;Temp;Humidity;BMP_temperature;BMP_pressure;BME280_temperature;BME280_humidity;BME280_pressure;Samples;Min_cycle;Max_cycle;Signal;HPM_P1;HPM_P2
2023/05/26 00:00:55;;;;;;;22.48;4.85;;;17.20;61.80;;;;;;3970702;29;20061;-59
2023/05/26 00:03:36;;;;;;;20.40;4.68;;;17.20;61.90;;;;;;3969964;29;20073;-59
2023/05/26 00:06:20;;;;;;;14.25;3.80;;;17.20;63.00;;;;;;3970729;29;20063;-59
2023/05/26 00:09:03;;;;;;;20.70;4.80;;;17.20;62.40;;;;;;3970348;29;20062;-59
2023/05/26 00:11:45;;;;;;;15.93;4.97;;;17.20;62.50;;;;;;3970465;29;20070;-70
2023/05/26 00:14:26;;;;;;;15.25;3.75;;;17.20;62.60;;;;;;3970399;29;20061;-59
2023/05/26 00:17:07;;;;;;;17.63;4.35;;;17.20;62.70;;;;;;3970544;29;20111;-54
2023/05/26 00:19:49;;;;;;;18.83;4.47;;;17.20;63.00;;;;;;3958895;29;20074;-53
2023/05/26 00:22:30;;;;;;;23.92;4.93;;;17.20;63.00;;;;;;3971100;29;20481;-53
2023/05/26 00:25:12;;;;;;;16.85;4.10;;;17.20;63.10;;;;;;3973465;29;20058;-53
2023/05/26 00:27:53;;;;;;;15.13;4.95;;;17.20;63.20;;;;;;3973168;29;20054;-54
2023/05/26 00:30:34;;;;;;;17.27;4.63;;;17.20;63.10;;;;;;3972334;29;20075;-53
2023/05/26 00:33:15;;;;;;;21.97;4.53;;;17.20;63.10;;;;;;3972621;29;20077;-50
2023/05/26 00:35:55;;;;;;;21.40;4.78;;;17.20;62.90;;;;;;3972525;29;20315;-54
2023/05/26 00:38:37;;;;;;;17.35;4.80;;;17.20;62.90;;;;;;3973157;29;20061;-54
2023/05/26 00:41:19;;;;;;;21.15;4.13;;;17.10;62.80;;;;;;3961816;29;20064;-54
2023/05/26 00:44:01;;;;;;;20.08;4.05;;;17.10;62.50;;;;;;3961948;29;20053;-55
2023/05/26 00:46:42;;;;;;;15.98;4.30;;;17.10;62.60;;;;;;3961786;29;20063;-54
2023/05/26 00:49:23;;;;;;;15.65;4.65;;;17.10;62.80;;;;;;3972443;29;20118;-54
2023/05/26 00:52:05;;;;;;;15.85;4.38;;;17.10;62.70;;;;;;3973108;29;20057;-59
2023/05/26 00:54:47;;;;;;;18.08;4.40;;;17.10;62.80;;;;;;3973208;29;20509;-59
2023/05/26 00:57:31;;;;;;;18.75;4.38;;;17.10;63.80;;;;;;3973233;29;20058;-59
2023/05/26 01:00:13;;;;;;;23.10;5.30;;;17.10;63.20;;;;;;3973197;29;20054;-59
2023/05/26 01:02:58;;;;;;;19.38;4.63;;;17.10;63.20;;;;;;3972670;29;20408;-59
2023/05/26 01:05:40;;;;;;;19.17;5.38;;;17.10;63.00;;;;;;3972045;29;20110;-59
2023/05/26 01:08:21;;;;;;;28.83;5.18;;;17.10;63.10;;;;;;3972934;29;20066;-59
2023/05/26 01:11:05;;;;;;;24.23;4.88;;;17.10;63.00;;;;;;3973332;29;20061;-52
2023/05/26 01:13:52;;;;;;;20.92;4.30;;;17.00;62.70;;;;;;3973041;29;20467;-54
2023/05/26 01:16:39;;;;;;;25.38;5.25;;;17.00;63.20;;;;;;3973159;29;20079;-53
2023/05/26 01:19:46;;;;;;;19.15;4.50;;;17.00;62.90;;;;;;3972200;29;20368;-54
2023/05/26 01:22:47;;;;;;;16.95;4.88;;;17.00;62.80;;;;;;3971626;29;20070;-52
2023/05/26 01:25:44;;;;;;;19.47;5.00;;;17.00;63.10;;;;;;3971867;29;20146;-51
2023/05/26 01:28:30;;;;;;;20.15;4.72;;;17.00;63.40;;;;;;3972699;29;20653;-51
2023/05/26 01:31:11;;;;;;;18.65;5.40;;;17.00;63.50;;;;;;3972680;29;20054;-53
2023/05/26 01:33:52;;;;;;;18.27;5.00;;;17.00;63.50;;;;;;3961541;29;20123;-54
2023/05/26 01:36:35;;;;;;;28.90;4.65;;;17.00;63.20;;;;;;3960753;29;20057;-52
2023/05/26 01:39:16;;;;;;;20.23;5.32;;;16.90;63.00;;;;;;3972906;29;20066;-54
2023/05/26 01:42:07;;;;;;;16.27;4.68;;;16.90;62.60;;;;;;3972063;29;20058;-51
2023/05/26 01:45:05;;;;;;;17.08;4.68;;;16.90;62.70;;;;;;3972682;29;20184;-51
2023/05/26 01:47:50;;;;;;;20.10;5.10;;;17.00;63.00;;;;;;3961085;29;20062;-51
2023/05/26 01:50:37;;;;;;;23.92;5.25;;;16.90;63.20;;;;;;3950366;29;20069;-54
2023/05/26 01:53:21;;;;;;;18.65;4.60;;;16.90;63.20;;;;;;3972445;29;20062;-52
2023/05/26 01:56:05;;;;;;;17.38;4.32;;;16.90;63.30;;;;;;3972473;29;20062;-53
2023/05/26 01:58:47;;;;;;;20.02;4.40;;;16.90;63.10;;;;;;3950956;29;20351;-55
2023/05/26 02:01:29;;;;;;;21.05;4.88;;;16.90;63.20;;;;;;3971611;29;20065;-51
2023/05/26 02:04:11;;;;;;;19.20;5.15;;;16.90;63.00;;;;;;3959883;29;20183;-55
2023/05/26 02:06:54;;;;;;;18.45;4.75;;;16.80;63.00;;;;;;3972163;29;20057;-53
2023/05/26 02:09:36;;;;;;;19.35;4.18;;;16.80;63.50;;;;;;3971589;29;20061;-54
2023/05/26 02:12:17;;;;;;;13.52;4.47;;;16.80;63.70;;;;;;3971093;29;20797;-53
2023/05/26 02:14:59;;;;;;;22.95;5.13;;;16.90;63.70;;;;;;3971915;29;20066;-53
2023/05/26 02:17:41;;;;;;;18.17;5.07;;;16.90;63.70;;;;;;3968793;29;20191;-53
2023/05/26 02:20:22;;;;;;;23.02;4.53;;;16.80;63.90;;;;;;3961146;29;20061;-53
2023/05/26 02:23:03;;;;;;;19.15;4.38;;;16.80;64.10;;;;;;3970531;29;20061;-54
2023/05/26 02:25:45;;;;;;;20.92;4.28;;;16.80;64.10;;;;;;3970411;29;20057;-51
2023/05/26 02:28:26;;;;;;;16.67;4.03;;;16.80;64.10;;;;;;3972033;29;20050;-50
2023/05/26 02:31:07;;;;;;;17.58;4.35;;;16.80;64.00;;;;;;3960477;29;20519;-53
2023/05/26 02:33:50;;;;;;;18.58;5.05;;;16.80;63.90;;;;;;3956850;29;20082;-51
2023/05/26 02:36:31;;;;;;;21.50;5.13;;;16.80;63.90;;;;;;3956105;29;20062;-52
2023/05/26 02:39:12;;;;;;;;;;;16.80;64.70;;;;;;3957623;29;20119;-51
2023/05/26 02:41:53;;;;;;;18.25;4.53;;;16.80;63.80;;;;;;3970706;29;19932;-59
2023/05/26 02:44:34;;;;;;;18.67;4.18;;;16.80;64.50;;;;;;3960700;29;20506;-59
2023/05/26 02:47:15;;;;;;;25.50;6.13;;;16.80;64.20;;;;;;3960713;29;20065;-59
2023/05/26 02:49:59;;;;;;;14.65;4.38;;;16.80;64.40;;;;;;3971437;29;20058;-59
2023/05/26 02:52:40;;;;;;;14.13;4.20;;;16.80;64.20;;;;;;3971669;29;20075;-59
2023/05/26 02:55:24;;;;;;;;;;;16.70;63.70;;;;;;3972102;29;20142;-59
2023/05/26 02:58:05;;;;;;;17.15;4.40;;;16.70;63.90;;;;;;3971443;29;19932;-59
2023/05/26 03:00:46;;;;;;;17.27;4.22;;;16.70;64.60;;;;;;3969753;29;20069;-58
2023/05/26 03:03:28;;;;;;;16.23;4.20;;;16.70;64.40;;;;;;3970542;29;20063;-59
2023/05/26 03:06:10;;;;;;;18.10;5.07;;;16.70;64.30;;;;;;3971502;29;20593;-59
2023/05/26 03:08:52;;;;;;;17.20;4.85;;;16.70;64.40;;;;;;3960224;29;20099;-59
2023/05/26 03:11:33;;;;;;;17.98;4.93;;;16.70;64.40;;;;;;3971202;29;20057;-59
2023/05/26 03:14:15;;;;;;;18.90;4.72;;;16.70;64.20;;;;;;3970738;29;20066;-59
2023/05/26 03:16:56;;;;;;;15.00;4.63;;;16.60;64.00;;;;;;3970375;29;20062;-59
2023/05/26 03:19:37;;;;;;;19.67;4.95;;;16.60;64.20;;;;;;3969915;29;20058;-60
2023/05/26 03:22:19;;;;;;;20.98;4.32;;;16.60;64.50;;;;;;3969352;29;20184;-59
2023/05/26 03:25:18;;;;;;;19.42;4.65;;;16.70;64.50;;;;;;3958827;29;20506;-59
2023/05/26 03:28:01;;;;;;;19.48;4.93;;;16.70;64.80;;;;;;3969471;29;20180;-59
2023/05/26 03:30:42;;;;;;;20.10;4.07;;;16.60;64.80;;;;;;3970017;29;20057;-58
2023/05/26 03:33:23;;;;;;;17.95;4.38;;;16.60;64.70;;;;;;3959641;29;20439;-60
2023/05/26 03:36:06;;;;;;;22.85;4.45;;;16.60;64.60;;;;;;3970591;29;20498;-58
2023/05/26 03:38:49;;;;;;;13.93;4.70;;;16.60;64.60;;;;;;3970824;29;20151;-58
2023/05/26 03:41:31;;;;;;;15.50;4.43;;;16.60;65.70;;;;;;3944496;30;20066;-59
2023/05/26 03:44:12;;;;;;;19.67;4.40;;;16.60;65.00;;;;;;3959335;29;20049;-60
2023/05/26 03:46:53;;;;;;;22.80;3.88;;;16.60;64.90;;;;;;3970741;29;20061;-59
2023/05/26 03:49:34;;;;;;;17.20;4.18;;;16.60;64.80;;;;;;3970152;29;20474;-59
2023/05/26 03:52:16;;;;;;;20.77;4.07;;;16.60;64.90;;;;;;3969487;29;20156;-59
2023/05/26 03:54:58;;;;;;;21.10;4.50;;;16.60;64.90;;;;;;3970847;29;20058;-59
2023/05/26 03:57:39;;;;;;;16.95;4.00;;;16.60;64.90;;;;;;3969814;29;20081;-58
2023/05/26 04:00:21;;;;;;;21.85;5.32;;;16.60;65.80;;;;;;3969951;29;20897;-52
2023/05/26 04:03:03;;;;;;;22.13;5.15;;;16.60;65.00;;;;;;3964799;29;20070;-49
2023/05/26 04:05:45;;;;;;;;;;;16.60;65.10;;;;;;3959888;29;20057;-49
2023/05/26 04:08:26;;;;;;;14.82;4.60;;;16.60;65.40;;;;;;3969964;29;19936;-51
2023/05/26 04:11:09;;;;;;;25.27;5.25;;;16.60;66.10;;;;;;3969436;29;20169;-49
2023/05/26 04:13:50;;;;;;;18.83;3.90;;;16.60;65.90;;;;;;3955838;29;20058;-50
2023/05/26 04:16:31;;;;;;;13.85;4.03;;;16.60;65.80;;;;;;3955740;29;20066;-50
2023/05/26 04:19:13;;;;;;;17.25;4.72;;;16.60;65.90;;;;;;3955063;29;20154;-60
2023/05/26 04:21:53;;;;;;;17.80;4.75;;;16.60;65.90;;;;;;3956256;29;20067;-60
2023/05/26 04:24:34;;;;;;;23.00;4.75;;;16.60;65.90;;;;;;3949654;29;20435;-64
2023/05/26 04:27:17;;;;;;;;;;;16.60;65.80;;;;;;3969628;29;20066;-60
2023/05/26 04:30:17;;;;;;;23.37;5.60;;;16.60;65.80;;;;;;3970233;29;20446;-60
2023/05/26 04:33:20;;;;;;;20.15;4.65;;;16.60;66.40;;;;;;3969414;29;20348;-58
2023/05/26 04:36:12;;;;;;;;;;;16.60;66.20;;;;;;3968784;29;20115;-56
2023/05/26 04:38:54;;;;;;;17.67;4.15;;;16.60;66.10;;;;;;3970215;29;20062;-58
2023/05/26 04:41:35;;;;;;;16.88;4.47;;;16.60;66.60;;;;;;3970522;29;20058;-49
2023/05/26 04:44:19;;;;;;;16.85;4.38;;;16.60;66.30;;;;;;3969056;29;20062;-58
2023/05/26 04:47:00;;;;;;;18.65;4.88;;;16.70;66.10;;;;;;3969807;29;20547;-58
2023/05/26 04:49:42;;;;;;;17.50;4.65;;;16.60;66.00;;;;;;3970153;29;20046;-58
2023/05/26 04:52:23;;;;;;;12.95;3.95;;;16.60;66.00;;;;;;3969077;29;20070;-58
2023/05/26 04:55:04;;;;;;;24.03;5.17;;;16.60;66.00;;;;;;3944679;29;20054;-58
2023/05/26 04:57:45;;;;;;;;;;;16.60;66.20;;;;;;3955269;29;20062;-56
2023/05/26 05:00:31;;;;;;;17.92;3.80;;;16.70;66.30;;;;;;3958519;29;19932;-57
2023/05/26 05:03:29;;;;;;;21.13;5.05;;;16.70;66.80;;;;;;3927364;30;20071;-58
2023/05/26 05:06:20;;;;;;;18.42;4.28;;;16.70;66.40;;;;;;3948715;29;20144;-57
2023/05/26 05:09:03;;;;;;;17.13;4.43;;;16.70;66.30;;;;;;3941999;29;20072;-58
2023/05/26 05:11:44;;;;;;;19.50;4.63;;;16.70;66.50;;;;;;3961529;29;20408;-58
2023/05/26 05:14:25;;;;;;;21.55;4.35;;;16.70;66.50;;;;;;3961269;29;20070;-57
2023/05/26 05:17:08;;;;;;;21.55;5.35;;;16.60;66.50;;;;;;3957558;29;20046;-57
2023/05/26 05:19:49;;;;;;;15.93;4.03;;;16.60;66.00;;;;;;3956136;29;20100;-57
2023/05/26 05:22:43;;;;;;;17.13;4.70;;;16.70;66.00;;;;;;3939207;30;20055;-56
2023/05/26 05:25:25;;;;;;;20.50;3.55;;;16.60;66.00;;;;;;3940393;30;20081;-57
2023/05/26 05:28:07;;;;;;;18.17;4.20;;;16.60;65.90;;;;;;3938130;30;20185;-57
2023/05/26 05:30:50;;;;;;;20.77;4.82;;;16.70;65.60;;;;;;3945738;29;20063;-56
2023/05/26 05:33:33;;;;;;;19.10;3.70;;;16.70;65.20;;;;;;3928760;30;20532;-55
2023/05/26 05:36:14;;;;;;;14.00;4.50;;;16.70;64.60;;;;;;3953684;29;20063;-56
2023/05/26 05:38:55;;;;;;;18.15;4.18;;;16.70;64.60;;;;;;3934239;29;20060;-56
2023/05/26 05:41:36;;;;;;;12.57;4.30;;;16.70;64.60;;;;;;3939111;30;20074;-50
2023/05/26 05:44:17;;;;;;;19.08;4.78;;;16.70;63.70;;;;;;3916035;30;20064;-51
2023/05/26 05:46:58;;;;;;;18.13;4.40;;;16.60;63.80;;;;;;3936065;30;20059;-51
2023/05/26 05:49:50;;;;;;;16.02;3.78;;;16.60;63.50;;;;;;3945978;29;20059;-50
2023/05/26 05:52:31;;;;;;;15.02;3.75;;;16.60;63.40;;;;;;3965196;29;20135;-50
2023/05/26 05:55:13;;;;;;;17.15;4.88;;;16.60;63.30;;;;;;3961276;29;20050;-50
2023/05/26 05:57:54;;;;;;;17.00;4.50;;;16.60;64.00;;;;;;3966903;29;20206;-51
2023/05/26 06:00:36;;;;;;;16.92;4.72;;;16.70;62.90;;;;;;3967208;29;20070;-53
2023/05/26 06:03:17;;;;;;;13.40;4.13;;;16.60;62.70;;;;;;3935214;30;20059;-51
2023/05/26 06:06:00;;;;;;;19.95;4.68;;;16.60;62.70;;;;;;3944086;29;20078;-50
2023/05/26 06:08:41;;;;;;;20.40;4.68;;;16.60;63.30;;;;;;3932765;30;20183;-50
2023/05/26 06:11:22;;;;;;;17.73;4.72;;;16.70;63.00;;;;;;3936237;29;20412;-49
2023/05/26 06:14:03;;;;;;;15.73;4.30;;;16.70;63.30;;;;;;3952351;29;20063;-49
2023/05/26 06:16:44;;;;;;;21.85;4.60;;;16.60;63.20;;;;;;3943071;29;20076;-51
2023/05/26 06:19:25;;;;;;;19.20;4.53;;;16.70;63.30;;;;;;3947324;29;20063;-50
2023/05/26 06:22:08;;;;;;;22.33;4.30;;;16.70;63.20;;;;;;3952921;29;20815;-49
2023/05/26 06:24:50;;;;;;;20.70;3.95;;;16.70;62.40;;;;;;3967009;29;20062;-50
2023/05/26 06:27:32;;;;;;;18.50;4.32;;;16.70;62.00;;;;;;3960771;29;20416;-49
2023/05/26 06:30:14;;;;;;;12.13;3.72;;;16.70;62.50;;;;;;3952266;29;20878;-50
2023/05/26 06:32:58;;;;;;;17.13;4.03;;;16.80;62.80;;;;;;3941565;29;20416;-50
2023/05/26 06:35:40;;;;;;;17.90;3.17;;;16.80;62.50;;;;;;3950274;29;20051;-57
2023/05/26 06:38:23;;;;;;;18.80;3.63;;;16.90;61.90;;;;;;3951680;29;20519;-56
2023/05/26 06:41:04;;;;;;;20.50;4.72;;;16.90;61.60;;;;;;3940715;30;20058;-49
2023/05/26 06:43:46;;;;;;;16.13;3.22;;;17.00;61.50;;;;;;3951612;29;20572;-50
2023/05/26 06:46:27;;;;;;;;;;;17.10;60.80;;;;;;3950275;29;20074;-51
2023/05/26 06:49:09;;;;;;;12.05;3.90;;;17.10;60.70;;;;;;3950487;29;19963;-49
2023/05/26 06:52:00;;;;;;;15.25;4.45;;;17.20;61.60;;;;;;3951245;29;20067;-52
2023/05/26 06:54:42;;;;;;;13.48;3.53;;;17.30;61.50;;;;;;3941208;30;20059;-50
2023/05/26 06:57:24;;;;;;;14.05;4.03;;;17.30;61.10;;;;;;3926409;30;20055;-53
2023/05/26 07:00:06;;;;;;;11.45;3.38;;;17.40;60.60;;;;;;3936899;30;20063;-49
2023/05/26 07:02:47;;;;;;;10.40;3.38;;;17.50;59.40;;;;;;3950230;29;20082;-50
2023/05/26 07:05:42;;;;;;;11.30;3.40;;;17.60;58.80;;;;;;3955878;29;20062;-49
2023/05/26 07:08:32;;;;;;;9.40;3.30;;;17.70;58.60;;;;;;3955879;29;20384;-49
2023/05/26 07:11:33;;;;;;;12.88;3.88;;;17.70;58.00;;;;;;3955712;29;20066;-49
2023/05/26 07:14:18;;;;;;;11.30;3.10;;;17.80;57.40;;;;;;3945398;29;20062;-49
2023/05/26 07:16:59;;;;;;;10.90;2.88;;;17.80;56.80;;;;;;3945328;29;20054;-52
2023/05/26 07:19:41;;;;;;;13.30;3.13;;;17.90;56.70;;;;;;3945064;30;20062;-50
2023/05/26 07:22:21;;;;;;;11.77;3.30;;;17.90;56.40;;;;;;3950434;30;20088;-51
2023/05/26 07:25:14;;;;;;;10.68;3.20;;;17.90;56.30;;;;;;3940812;30;20092;-50
2023/05/26 07:28:01;;;;;;;13.55;3.67;;;18.00;57.10;;;;;;3951274;29;20415;-50
2023/05/26 07:30:42;;;;;;;8.70;3.58;;;17.90;56.40;;;;;;3955601;29;20111;-52
2023/05/26 07:33:25;;;;;;;13.15;3.22;;;17.90;56.20;;;;;;3955666;29;20155;-52
2023/05/26 07:36:08;;;;;;;12.07;2.67;;;17.90;56.40;;;;;;3955955;29;20062;-50
2023/05/26 07:38:50;;;;;;;8.27;3.70;;;17.90;56.30;;;;;;3945232;30;20512;-50
2023/05/26 07:41:32;;;;;;;10.25;3.42;;;17.90;56.10;;;;;;3956418;29;20086;-49
2023/05/26 07:44:14;;;;;;;10.73;3.17;;;17.90;55.80;;;;;;3956464;29;20062;-49
2023/05/26 07:46:55;;;;;;;14.50;3.30;;;17.90;55.50;;;;;;3956195;29;20514;-48
2023/05/26 07:49:36;;;;;;;14.82;3.63;;;17.90;55.40;;;;;;3956384;29;20066;-50
2023/05/26 07:52:17;;;;;;;13.20;3.13;;;17.90;54.90;;;;;;3954931;29;20525;-50
2023/05/26 07:54:59;;;;;;;9.15;2.97;;;17.90;55.50;;;;;;3956055;29;20062;-51
2023/05/26 07:57:41;;;;;;;13.18;3.50;;;17.90;54.80;;;;;;3955705;29;20857;-51
2023/05/26 08:00:24;;;;;;;14.18;3.22;;;17.90;55.40;;;;;;3955959;29;20707;-49
2023/05/26 08:03:05;;;;;;;10.00;3.40;;;17.90;55.40;;;;;;3944930;29;20208;-51
2023/05/26 08:05:47;;;;;;;11.68;2.67;;;17.90;55.10;;;;;;3955217;29;20054;-49
2023/05/26 08:08:29;;;;;;;12.60;3.00;;;17.90;55.10;;;;;;3955919;29;20070;-48
2023/05/26 08:11:10;;;;;;;7.72;2.55;;;17.90;55.00;;;;;;3956222;29;20062;-50
2023/05/26 08:13:51;;;;;;;10.95;3.22;;;18.00;55.90;;;;;;3956230;29;20062;-50
2023/05/26 08:16:34;;;;;;;11.02;3.13;;;18.00;55.20;;;;;;3955287;29;20127;-50
2023/05/26 08:19:15;;;;;;;10.32;3.30;;;18.00;54.80;;;;;;3955745;29;20544;-50
2023/05/26 08:21:56;;;;;;;14.52;3.22;;;18.00;54.80;;;;;;3955908;29;20151;-48
2023/05/26 08:24:37;;;;;;;8.63;3.28;;;18.00;54.60;;;;;;3956115;29;20063;-48
2023/05/26 08:27:17;;;;;;;9.05;2.97;;;18.00;54.80;;;;;;3955600;29;20058;-52
2023/05/26 08:29:58;;;;;;;10.13;3.15;;;18.00;54.70;;;;;;3955933;29;20195;-49
2023/05/26 08:32:41;;;;;;;11.60;2.92;;;18.00;55.00;;;;;;3955806;29;20058;-49
2023/05/26 08:35:22;;;;;;;11.05;3.38;;;18.10;55.40;;;;;;3956111;29;20104;-49
2023/05/26 08:38:03;;;;;;;15.63;3.35;;;18.10;54.80;;;;;;3956038;29;20221;-49
2023/05/26 08:40:44;;;;;;;13.73;2.88;;;18.10;54.60;;;;;;3955885;29;20053;-51
2023/05/26 08:43:33;;;;;;;11.43;2.75;;;18.10;54.20;;;;;;3945153;30;20504;-51
2023/05/26 08:46:27;;;;;;;14.07;3.30;;;18.10;54.50;;;;;;3958301;29;20062;-52
2023/05/26 08:49:10;;;;;;;11.48;3.28;;;18.20;54.70;;;;;;3957409;29;20049;-51
2023/05/26 08:51:58;;;;;;;10.07;2.60;;;18.20;54.50;;;;;;3958060;29;20085;-51
2023/05/26 08:54:39;;;;;;;11.00;3.28;;;18.20;54.20;;;;;;3958484;30;20097;-58
2023/05/26 08:57:21;;;;;;;12.60;3.13;;;18.20;53.90;;;;;;3958768;29;20189;-58
2023/05/26 09:00:04;;;;;;;11.88;3.30;;;18.30;53.80;;;;;;3958277;29;20634;-58
2023/05/26 09:02:46;;;;;;;12.65;3.10;;;18.30;54.10;;;;;;3956899;29;20523;-58
2023/05/26 09:05:30;;;;;;;11.20;3.53;;;18.30;54.00;;;;;;3950444;29;20066;-59
2023/05/26 09:08:13;;;;;;;13.18;3.38;;;18.30;53.90;;;;;;3956914;29;20066;-58
2023/05/26 09:10:55;;;;;;;13.40;3.67;;;18.30;53.80;;;;;;3957568;29;20181;-60
2023/05/26 09:13:40;;;;;;;7.88;3.00;;;18.30;53.80;;;;;;3957217;29;20066;-64
2023/05/26 09:16:25;;;;;;;15.07;3.40;;;18.30;54.90;;;;;;3958202;29;20069;-60
2023/05/26 09:19:06;;;;;;;11.48;3.70;;;18.30;54.10;;;;;;3957899;29;20192;-60
2023/05/26 09:21:50;;;;;;;14.13;3.72;;;18.30;53.90;;;;;;3957608;29;20131;-59
2023/05/26 09:24:31;;;;;;;11.38;4.03;;;18.30;53.90;;;;;;3957882;29;20066;-59
2023/05/26 09:27:18;;;;;;;7.68;3.00;;;18.30;54.40;;;;;;3957898;29;20050;-59
2023/05/26 09:30:00;;;;;;;11.70;3.20;;;18.30;54.00;;;;;;3956884;29;20058;-59
2023/05/26 09:32:41;;;;;;;12.27;2.90;;;18.30;54.10;;;;;;3958042;29;20072;-59
2023/05/26 09:35:22;;;;;;;13.05;4.00;;;18.30;54.60;;;;;;3958209;29;20499;-59
2023/05/26 09:38:07;;;;;;;10.95;3.22;;;18.40;54.10;;;;;;3957922;29;20086;-59
2023/05/26 09:40:49;;;;;;;8.93;2.85;;;18.40;53.90;;;;;;3946835;29;20221;-59
2023/05/26 09:43:34;;;;;;;8.93;2.42;;;18.40;54.10;;;;;;3958065;29;20066;-59
2023/05/26 09:46:22;;;;;;;13.85;3.00;;;18.40;53.40;;;;;;3957883;29;20499;-59
2023/05/26 09:49:08;;;;;;;9.63;3.60;;;18.40;53.30;;;;;;3957946;30;20221;-59
2023/05/26 09:51:50;;;;;;;12.32;3.25;;;18.50;53.90;;;;;;3957532;29;20569;-59
2023/05/26 09:54:51;;;;;;;8.60;2.90;;;18.50;53.90;;;;;;3957299;29;20157;-59
2023/05/26 09:57:33;;;;;;;13.38;3.58;;;18.50;53.70;;;;;;3957260;29;20066;-59
2023/05/26 10:00:17;;;;;;;10.18;3.33;;;18.50;53.50;;;;;;3957599;29;20070;-59
2023/05/26 10:02:59;;;;;;;12.93;3.22;;;18.50;53.40;;;;;;3957547;29;20196;-59
2023/05/26 10:05:45;;;;;;;12.20;3.42;;;18.50;53.30;;;;;;3957384;30;20416;-59
2023/05/26 10:08:30;;;;;;;13.07;3.67;;;18.50;53.30;;;;;;3956519;29;20111;-59
2023/05/26 10:11:13;;;;;;;14.77;3.47;;;18.50;53.50;;;;;;3957302;29;20086;-59
2023/05/26 10:13:55;;;;;;;12.05;3.05;;;18.50;53.80;;;;;;3957406;29;20115;-59
2023/05/26 10:16:37;;;;;;;10.95;3.22;;;18.50;53.30;;;;;;3946150;29;20070;-51
2023/05/26 10:19:18;;;;;;;11.27;3.47;;;18.50;53.50;;;;;;3957512;29;20564;-50
2023/05/26 10:22:07;;;;;;;9.63;3.05;;;18.50;53.40;;;;;;3957456;29;20058;-51
2023/05/26 10:24:56;;;;;;;11.35;3.03;;;18.50;53.50;;;;;;3957290;29;20058;-51
2023/05/26 10:27:46;;;;;;;14.55;3.78;;;18.50;54.30;;;;;;3957219;29;20062;-51
2023/05/26 10:30:28;;;;;;;12.93;3.30;;;18.50;53.70;;;;;;3956143;29;20062;-50
2023/05/26 10:33:11;;;;;;;15.27;3.30;;;18.50;53.60;;;;;;3957308;29;20062;-50
2023/05/26 10:35:57;;;;;;;9.60;3.28;;;18.60;53.80;;;;;;3957280;30;20084;-51
2023/05/26 10:38:43;;;;;;;9.50;3.55;;;18.60;53.80;;;;;;3957335;29;20057;-59
2023/05/26 10:41:32;;;;;;;13.75;3.78;;;18.60;53.60;;;;;;3956992;29;20198;-59
2023/05/26 10:44:42;;;;;;;8.43;3.58;;;18.70;53.80;;;;;;3957010;29;20062;-58
2023/05/26 10:47:30;;;;;;;9.70;3.13;;;18.70;53.40;;;;;;3956971;29;20054;-59
2023/05/26 10:50:11;;;;;;;13.20;3.90;;;18.70;53.60;;;;;;3956020;29;20514;-50
2023/05/26 10:52:52;;;;;;;10.13;3.97;;;18.60;53.40;;;;;;3956996;29;20149;-51
2023/05/26 10:55:53;;;;;;;12.00;3.88;;;18.70;53.70;;;;;;3956911;29;20079;-59
2023/05/26 10:58:36;;;;;;;14.30;3.47;;;18.70;53.10;;;;;;3956405;29;20135;-51
2023/05/26 11:01:28;;;;;;;9.02;3.00;;;18.70;53.40;;;;;;3956585;29;20515;-48
2023/05/26 11:04:11;;;;;;;10.90;2.97;;;18.70;53.40;;;;;;3956896;29;20516;-59
2023/05/26 11:06:58;;;;;;;14.18;3.55;;;18.80;53.70;;;;;;3956291;29;20101;-59
2023/05/26 11:09:57;;;;;;;11.25;4.13;;;18.80;53.50;;;;;;3956609;29;20481;-55
2023/05/26 11:12:51;;;;;;;12.68;3.63;;;18.80;53.50;;;;;;3956259;29;20074;-49
2023/05/26 11:15:32;;;;;;;10.43;3.58;;;18.80;53.70;;;;;;3956514;29;20070;-55
2023/05/26 11:18:16;;;;;;;13.07;3.80;;;18.90;54.10;;;;;;3956569;30;20058;-53
2023/05/26 11:20:59;;;;;;;10.75;4.10;;;18.90;54.10;;;;;;3956252;29;20143;-51
2023/05/26 11:23:40;;;;;;;11.55;3.40;;;18.90;54.20;;;;;;3956878;29;20201;-53
2023/05/26 11:26:22;;;;;;;17.13;4.10;;;18.90;54.20;;;;;;3945484;29;20111;-52
2023/05/26 11:29:05;;;;;;;13.32;3.95;;;19.00;54.10;;;;;;3956620;29;20074;-53
2023/05/26 11:31:48;;;;;;;11.63;3.72;;;19.00;53.90;;;;;;3956289;29;20498;-53
2023/05/26 11:34:30;;;;;;;15.70;3.67;;;19.00;54.70;;;;;;3956415;29;20116;-50
2023/05/26 11:37:11;;;;;;;12.93;4.30;;;19.00;53.90;;;;;;3956311;29;20139;-52
2023/05/26 11:39:52;;;;;;;15.50;4.22;;;19.00;53.70;;;;;;3956156;29;20143;-52
2023/05/26 11:42:33;;;;;;;14.00;4.15;;;19.00;53.80;;;;;;3955434;29;20073;-52
2023/05/26 11:45:14;;;;;;;16.27;4.72;;;19.00;53.80;;;;;;3956216;29;20058;-54
2023/05/26 11:47:55;;;;;;;12.02;3.40;;;19.00;53.80;;;;;;3956095;29;20111;-53
2023/05/26 11:50:39;;;;;;;13.07;4.05;;;19.00;53.70;;;;;;3955971;29;20127;-52
2023/05/26 11:53:20;;;;;;;13.13;3.55;;;19.00;53.80;;;;;;3955118;29;20054;-54
2023/05/26 11:56:03;;;;;;;11.32;3.92;;;18.90;54.00;;;;;;3955982;29;20449;-53
2023/05/26 11:58:48;;;;;;;17.13;4.15;;;18.90;54.00;;;;;;3956109;29;20066;-53
2023/05/26 12:01:31;;;;;;;10.63;4.18;;;18.90;54.00;;;;;;3955455;29;20168;-59
2023/05/26 12:04:12;;;;;;;18.42;3.88;;;18.90;54.10;;;;;;3956071;29;20061;-59
2023/05/26 12:06:55;;;;;;;16.77;4.22;;;18.90;54.10;;;;;;3956059;29;20057;-58
2023/05/26 12:09:37;;;;;;;13.80;4.47;;;18.90;54.10;;;;;;3955816;29;20174;-58
2023/05/26 12:12:18;;;;;;;11.50;4.00;;;18.90;54.00;;;;;;3955577;29;20427;-58
2023/05/26 12:15:04;;;;;;;15.07;4.18;;;18.90;53.90;;;;;;3955768;30;20504;-58
2023/05/26 12:17:45;;;;;;;7.95;2.83;;;18.90;53.70;;;;;;3955829;29;20204;-58
2023/05/26 12:20:27;;;;;;;16.75;4.13;;;18.90;54.00;;;;;;3958900;29;20210;-58
2023/05/26 12:23:12;;;;;;;12.55;3.60;;;18.90;53.90;;;;;;3958870;29;20062;-58
2023/05/26 12:25:53;;;;;;;10.75;3.28;;;18.90;53.80;;;;;;3958677;29;20058;-58
2023/05/26 12:28:35;;;;;;;13.75;3.83;;;18.90;53.80;;;;;;3959486;29;20136;-58
2023/05/26 12:31:18;;;;;;;9.80;3.67;;;18.90;54.10;;;;;;3958831;29;20082;-58
2023/05/26 12:34:00;;;;;;;12.45;3.47;;;18.90;54.10;;;;;;3958839;29;20050;-58
2023/05/26 12:36:41;;;;;;;13.52;2.83;;;18.90;54.30;;;;;;3957978;29;20075;-58
2023/05/26 12:39:27;;;;;;;8.38;3.25;;;18.90;53.60;;;;;;3947284;29;20062;-50
2023/05/26 12:42:08;;;;;;;11.20;3.80;;;18.90;53.70;;;;;;3958982;29;20132;-52
2023/05/26 12:44:49;;;;;;;10.60;3.75;;;19.00;53.90;;;;;;3957597;29;20078;-51
2023/05/26 12:47:31;;;;;;;12.35;4.10;;;19.00;53.80;;;;;;3958246;29;20531;-53
2023/05/26 12:50:13;;;;;;;14.55;4.65;;;19.00;54.30;;;;;;3958636;29;20058;-54
2023/05/26 12:52:54;;;;;;;16.90;4.82;;;19.00;54.40;;;;;;3947311;30;20072;-52
2023/05/26 12:55:37;;;;;;;12.55;4.20;;;19.00;54.40;;;;;;3957198;29;20054;-59
2023/05/26 12:58:20;;;;;;;12.27;4.15;;;19.00;54.50;;;;;;3958618;29;20096;-58
2023/05/26 13:01:01;;;;;;;10.85;3.35;;;19.00;55.40;;;;;;3957840;29;20130;-58
2023/05/26 13:03:43;;;;;;;15.52;4.32;;;19.00;54.80;;;;;;3958338;30;20090;-58
2023/05/26 13:06:24;;;;;;;15.07;4.30;;;19.00;55.00;;;;;;3958350;29;20188;-58
2023/05/26 13:09:05;;;;;;;16.73;4.28;;;19.00;55.00;;;;;;3947144;30;20149;-59
2023/05/26 13:11:48;;;;;;;17.83;4.68;;;19.00;55.10;;;;;;3958098;29;20101;-58
2023/05/26 13:14:29;;;;;;;14.27;4.80;;;19.00;55.20;;;;;;3958290;29;20074;-59
2023/05/26 13:17:10;;;;;;;21.80;4.68;;;19.00;55.30;;;;;;3958117;29;20062;-58
2023/05/26 13:19:52;;;;;;;18.00;4.75;;;19.00;55.20;;;;;;3957711;29;20196;-58
2023/05/26 13:22:35;;;;;;;15.32;4.25;;;19.00;55.30;;;;;;3957989;29;20626;-60
2023/05/26 13:25:16;;;;;;;16.77;4.82;;;19.00;55.50;;;;;;3958290;29;20062;-58
2023/05/26 13:27:59;;;;;;;15.88;4.30;;;19.00;55.60;;;;;;3958323;29;20058;-58
2023/05/26 13:30:40;;;;;;;18.77;4.55;;;19.00;55.50;;;;;;3956842;29;20063;-58
2023/05/26 13:33:22;;;;;;;20.42;5.32;;;18.90;55.60;;;;;;3958013;29;20066;-58
2023/05/26 13:36:03;;;;;;;18.75;4.78;;;18.90;55.70;;;;;;3958168;29;20127;-59
2023/05/26 13:38:44;;;;;;;13.90;4.57;;;18.90;56.00;;;;;;3958007;29;20054;-58
2023/05/26 13:41:26;;;;;;;23.95;5.70;;;18.90;56.10;;;;;;3957933;29;20070;-58
2023/05/26 13:44:08;;;;;;;16.05;4.80;;;18.80;56.30;;;;;;3957836;29;20404;-58
2023/05/26 13:46:49;;;;;;;16.75;4.43;;;18.90;57.20;;;;;;3957843;29;20577;-58
2023/05/26 13:49:30;;;;;;;14.07;4.18;;;18.90;56.60;;;;;;3958052;29;20070;-58
2023/05/26 13:52:11;;;;;;;13.52;3.75;;;18.90;56.60;;;;;;3957863;29;20116;-59
2023/05/26 13:54:53;;;;;;;16.02;4.00;;;18.80;56.50;;;;;;3957659;29;20051;-58
2023/05/26 13:57:34;;;;;;;16.90;4.25;;;18.80;56.30;;;;;;3957322;29;20116;-58
2023/05/26 14:00:17;;;;;;;15.18;4.30;;;18.80;56.30;;;;;;3957245;29;20131;-58
2023/05/26 14:02:58;;;;;;;19.35;4.35;;;18.80;56.40;;;;;;3945834;29;20216;-58